sensor_id;sensor_type;location;lat;lon;timestamp;temperature;humidity
285;DHT22;127;48.770;9.212;2023-01-28T00:01:20;0.30;99.90
285;DHT22;127;48.770;9.212;2023-01-28T00:03:48;0.40;99.90
285;DHT22;127;48.770;9.212;2023-01-28T00:06:18;0.50;99.90
285;DHT22;127;48.770;9.212;2023-01-28T00:08:47;0.40;99.90
285;DHT22;127;48.770;9.212;2023-01-28T00:11:16;0.30;99.90
285;DHT22;127;48.770;9.212;2023-01-28T00:13:46;0.20;99.90
285;DHT22;127;48.770;9.212;2023-01-28T00:16:21;0.10;99.90
285;DHT22;127;48.770;9.212;2023-01-28T00:18:51;0.30;99.90
285;DHT22;127;48.770;9.212;2023-01-28T00:21:20;0.40;99.90
285;DHT22;127;48.770;9.212;2023-01-28T00:23:51;0.40;99.90
285;DHT22;127;48.770;9.212;2023-01-28T00:26:20;0.50;99.90
285;DHT22;127;48.770;9.212;2023-01-28T00:28:50;0.60;99.90
285;DHT22;127;48.770;9.212;2023-01-28T00:31:22;0.50;99.90
285;DHT22;127;48.770;9.212;2023-01-28T00:33:52;0.50;99.90
285;DHT22;127;48.770;9.212;2023-01-28T00:36:23;0.50;99.90
285;DHT22;127;48.770;9.212;2023-01-28T00:38:53;0.50;99.90
285;DHT22;127;48.770;9.212;2023-01-28T00:41:24;0.50;99.90
285;DHT22;127;48.770;9.212;2023-01-28T00:43:53;0.40;99.90
285;DHT22;127;48.770;9.212;2023-01-28T00:46:24;0.40;99.90
285;DHT22;127;48.770;9.212;2023-01-28T00:48:53;0.40;99.90
285;DHT22;127;48.770;9.212;2023-01-28T00:51:22;0.40;99.90
285;DHT22;127;48.770;9.212;2023-01-28T00:53:50;0.50;99.90
285;DHT22;127;48.770;9.212;2023-01-28T00:56:19;0.40;99.90
285;DHT22;127;48.770;9.212;2023-01-28T00:58:48;0.40;99.90
285;DHT22;127;48.770;9.212;2023-01-28T01:01:18;0.40;99.90
285;DHT22;127;48.770;9.212;2023-01-28T01:03:50;0.50;99.90
285;DHT22;127;48.770;9.212;2023-01-28T01:06:23;0.50;99.90
285;DHT22;127;48.770;9.212;2023-01-28T01:08:52;0.50;99.90
285;DHT22;127;48.770;9.212;2023-01-28T01:11:20;0.50;99.90
285;DHT22;127;48.770;9.212;2023-01-28T01:13:51;0.60;99.90
285;DHT22;127;48.770;9.212;2023-01-28T01:16:21;0.60;99.90
285;DHT22;127;48.770;9.212;2023-01-28T01:18:53;0.40;99.90
285;DHT22;127;48.770;9.212;2023-01-28T01:21:24;0.30;99.90
285;DHT22;127;48.770;9.212;2023-01-28T01:23:53;0.40;99.90
285;DHT22;127;48.770;9.212;2023-01-28T01:26:23;0.40;99.90
285;DHT22;127;48.770;9.212;2023-01-28T01:28:52;0.40;99.90
285;DHT22;127;48.770;9.212;2023-01-28T01:31:21;0.50;99.90
285;DHT22;127;48.770;9.212;2023-01-28T01:33:52;0.50;99.90
285;DHT22;127;48.770;9.212;2023-01-28T01:36:21;0.30;99.90
285;DHT22;127;48.770;9.212;2023-01-28T01:38:52;0.40;99.90
285;DHT22;127;48.770;9.212;2023-01-28T01:41:24;0.40;99.90
285;DHT22;127;48.770;9.212;2023-01-28T01:43:55;0.50;99.90
285;DHT22;127;48.770;9.212;2023-01-28T01:46:33;0.50;99.90
285;DHT22;127;48.770;9.212;2023-01-28T01:49:16;0.50;99.90
285;DHT22;127;48.770;9.212;2023-01-28T01:51:48;0.50;99.90
285;DHT22;127;48.770;9.212;2023-01-28T01:54:19;0.50;99.90
285;DHT22;127;48.770;9.212;2023-01-28T01:56:50;0.50;99.90
285;DHT22;127;48.770;9.212;2023-01-28T01:59:22;0.60;99.90
285;DHT22;127;48.770;9.212;2023-01-28T02:01:53;0.60;99.90
285;DHT22;127;48.770;9.212;2023-01-28T02:04:28;0.60;99.90
285;DHT22;127;48.770;9.212;2023-01-28T02:06:58;0.70;99.90
285;DHT22;127;48.770;9.212;2023-01-28T02:09:28;0.60;99.90
285;DHT22;127;48.770;9.212;2023-01-28T02:12:01;0.50;99.90
285;DHT22;127;48.770;9.212;2023-01-28T02:14:34;0.50;99.90
285;DHT22;127;48.770;9.212;2023-01-28T02:17:03;0.60;99.90
285;DHT22;127;48.770;9.212;2023-01-28T02:19:38;0.60;99.90
285;DHT22;127;48.770;9.212;2023-01-28T02:22:41;0.70;99.90
285;DHT22;127;48.770;9.212;2023-01-28T02:28:22;0.30;99.90
285;DHT22;127;48.770;9.212;2023-01-28T02:30:59;0.30;99.90
285;DHT22;127;48.770;9.212;2023-01-28T02:33:32;0.40;99.90
285;DHT22;127;48.770;9.212;2023-01-28T02:36:10;0.40;99.90
285;DHT22;127;48.770;9.212;2023-01-28T02:38:44;0.30;99.90
285;DHT22;127;48.770;9.212;2023-01-28T02:41:20;0.40;99.90
285;DHT22;127;48.770;9.212;2023-01-28T02:43:52;0.50;99.90
285;DHT22;127;48.770;9.212;2023-01-28T02:46:32;0.40;99.90
285;DHT22;127;48.770;9.212;2023-01-28T02:49:16;0.60;99.90
285;DHT22;127;48.770;9.212;2023-01-28T02:52:06;0.70;99.90
285;DHT22;127;48.770;9.212;2023-01-28T02:54:43;0.70;99.90
285;DHT22;127;48.770;9.212;2023-01-28T02:57:24;0.70;99.90
285;DHT22;127;48.770;9.212;2023-01-28T03:00:02;0.80;99.90
285;DHT22;127;48.770;9.212;2023-01-28T03:02:35;0.80;99.90
285;DHT22;127;48.770;9.212;2023-01-28T03:05:08;0.60;99.90
285;DHT22;127;48.770;9.212;2023-01-28T03:07:38;0.50;99.90
285;DHT22;127;48.770;9.212;2023-01-28T03:10:10;0.60;99.90
285;DHT22;127;48.770;9.212;2023-01-28T03:12:39;0.60;99.90
285;DHT22;127;48.770;9.212;2023-01-28T03:15:26;0.70;99.90
285;DHT22;127;48.770;9.212;2023-01-28T03:18:11;0.70;99.90
285;DHT22;127;48.770;9.212;2023-01-28T03:20:58;0.70;99.90
285;DHT22;127;48.770;9.212;2023-01-28T03:23:47;0.70;99.90
285;DHT22;127;48.770;9.212;2023-01-28T03:26:37;0.70;99.90
285;DHT22;127;48.770;9.212;2023-01-28T03:29:23;0.60;99.90
285;DHT22;127;48.770;9.212;2023-01-28T03:32:08;0.60;99.90
285;DHT22;127;48.770;9.212;2023-01-28T03:34:50;0.60;99.90
285;DHT22;127;48.770;9.212;2023-01-28T03:37:33;0.60;99.90
285;DHT22;127;48.770;9.212;2023-01-28T03:40:03;0.60;99.90
285;DHT22;127;48.770;9.212;2023-01-28T03:42:32;0.50;99.90
285;DHT22;127;48.770;9.212;2023-01-28T03:45:01;0.40;99.90
285;DHT22;127;48.770;9.212;2023-01-28T03:47:32;0.60;99.90
285;DHT22;127;48.770;9.212;2023-01-28T03:50:01;0.70;99.90
285;DHT22;127;48.770;9.212;2023-01-28T03:52:32;0.70;99.90
285;DHT22;127;48.770;9.212;2023-01-28T03:55:01;0.60;99.90
285;DHT22;127;48.770;9.212;2023-01-28T03:57:38;0.70;99.90
285;DHT22;127;48.770;9.212;2023-01-28T04:00:10;0.80;99.90
285;DHT22;127;48.770;9.212;2023-01-28T04:02:41;0.70;99.90
285;DHT22;127;48.770;9.212;2023-01-28T04:05:10;0.50;99.90
285;DHT22;127;48.770;9.212;2023-01-28T04:07:44;0.50;99.90
285;DHT22;127;48.770;9.212;2023-01-28T04:10:13;0.40;99.90
285;DHT22;127;48.770;9.212;2023-01-28T04:12:41;0.20;99.90
285;DHT22;127;48.770;9.212;2023-01-28T04:15:10;0.20;99.90
285;DHT22;127;48.770;9.212;2023-01-28T04:17:48;0.40;99.90
285;DHT22;127;48.770;9.212;2023-01-28T04:20:17;0.40;99.90
285;DHT22;127;48.770;9.212;2023-01-28T04:22:45;0.30;99.90
285;DHT22;127;48.770;9.212;2023-01-28T04:25:14;0.30;99.90
285;DHT22;127;48.770;9.212;2023-01-28T04:27:42;0.40;99.90
285;DHT22;127;48.770;9.212;2023-01-28T04:30:11;0.30;99.90
285;DHT22;127;48.770;9.212;2023-01-28T04:32:40;0.30;99.90
285;DHT22;127;48.770;9.212;2023-01-28T04:35:11;0.40;99.90
285;DHT22;127;48.770;9.212;2023-01-28T04:37:40;0.50;99.90
285;DHT22;127;48.770;9.212;2023-01-28T04:40:11;0.50;99.90
285;DHT22;127;48.770;9.212;2023-01-28T04:42:39;0.70;99.90
285;DHT22;127;48.770;9.212;2023-01-28T04:45:09;0.70;99.90
285;DHT22;127;48.770;9.212;2023-01-28T04:47:37;0.80;99.90
285;DHT22;127;48.770;9.212;2023-01-28T04:50:07;0.90;99.90
285;DHT22;127;48.770;9.212;2023-01-28T04:52:39;0.80;99.90
285;DHT22;127;48.770;9.212;2023-01-28T04:55:08;0.80;99.90
285;DHT22;127;48.770;9.212;2023-01-28T04:57:40;0.70;99.90
285;DHT22;127;48.770;9.212;2023-01-28T05:00:09;0.50;99.90
285;DHT22;127;48.770;9.212;2023-01-28T05:02:38;0.50;99.90
285;DHT22;127;48.770;9.212;2023-01-28T05:05:07;0.60;99.90
285;DHT22;127;48.770;9.212;2023-01-28T05:07:38;0.70;99.90
285;DHT22;127;48.770;9.212;2023-01-28T05:10:08;0.70;99.90
285;DHT22;127;48.770;9.212;2023-01-28T05:12:37;0.80;99.90
285;DHT22;127;48.770;9.212;2023-01-28T05:15:07;0.90;99.90
285;DHT22;127;48.770;9.212;2023-01-28T05:17:36;0.90;99.90
285;DHT22;127;48.770;9.212;2023-01-28T05:20:06;0.90;99.90
285;DHT22;127;48.770;9.212;2023-01-28T05:22:34;0.90;99.90
285;DHT22;127;48.770;9.212;2023-01-28T05:25:07;0.90;99.90
285;DHT22;127;48.770;9.212;2023-01-28T05:27:36;0.90;99.90
285;DHT22;127;48.770;9.212;2023-01-28T05:30:06;0.70;99.90
285;DHT22;127;48.770;9.212;2023-01-28T05:32:34;0.70;99.90
285;DHT22;127;48.770;9.212;2023-01-28T05:35:04;0.70;99.90
285;DHT22;127;48.770;9.212;2023-01-28T05:37:33;0.80;99.90
285;DHT22;127;48.770;9.212;2023-01-28T05:40:01;0.80;99.90
285;DHT22;127;48.770;9.212;2023-01-28T05:42:32;0.80;99.90
285;DHT22;127;48.770;9.212;2023-01-28T05:45:01;0.80;99.90
285;DHT22;127;48.770;9.212;2023-01-28T05:47:29;0.80;99.90
285;DHT22;127;48.770;9.212;2023-01-28T05:49:58;0.80;99.90
285;DHT22;127;48.770;9.212;2023-01-28T05:52:27;0.90;99.90
285;DHT22;127;48.770;9.212;2023-01-28T05:54:55;0.90;99.90
285;DHT22;127;48.770;9.212;2023-01-28T05:57:24;0.80;99.90
285;DHT22;127;48.770;9.212;2023-01-28T05:59:55;0.70;99.90
285;DHT22;127;48.770;9.212;2023-01-28T06:02:24;0.70;99.90
285;DHT22;127;48.770;9.212;2023-01-28T06:04:52;0.70;99.90
285;DHT22;127;48.770;9.212;2023-01-28T06:07:21;0.70;99.90
285;DHT22;127;48.770;9.212;2023-01-28T06:09:49;0.70;99.90
285;DHT22;127;48.770;9.212;2023-01-28T06:12:18;0.70;99.90
285;DHT22;127;48.770;9.212;2023-01-28T06:14:47;0.70;99.90
285;DHT22;127;48.770;9.212;2023-01-28T06:17:18;0.60;99.90
285;DHT22;127;48.770;9.212;2023-01-28T06:19:46;0.40;99.90
285;DHT22;127;48.770;9.212;2023-01-28T06:22:15;0.40;99.90
285;DHT22;127;48.770;9.212;2023-01-28T06:24:44;0.50;99.90
285;DHT22;127;48.770;9.212;2023-01-28T06:27:12;0.50;99.90
285;DHT22;127;48.770;9.212;2023-01-28T06:29:41;0.40;99.90
285;DHT22;127;48.770;9.212;2023-01-28T06:32:09;0.60;99.90
285;DHT22;127;48.770;9.212;2023-01-28T06:34:41;0.70;99.90
285;DHT22;127;48.770;9.212;2023-01-28T06:37:12;0.70;99.90
285;DHT22;127;48.770;9.212;2023-01-28T06:39:41;0.80;99.90
285;DHT22;127;48.770;9.212;2023-01-28T06:42:09;0.80;99.90
285;DHT22;127;48.770;9.212;2023-01-28T06:44:38;0.80;99.90
285;DHT22;127;48.770;9.212;2023-01-28T06:47:06;0.80;99.90
285;DHT22;127;48.770;9.212;2023-01-28T06:49:35;0.80;99.90
285;DHT22;127;48.770;9.212;2023-01-28T06:52:07;0.80;99.90
285;DHT22;127;48.770;9.212;2023-01-28T06:54:35;0.80;99.90
285;DHT22;127;48.770;9.212;2023-01-28T06:57:04;0.80;99.90
285;DHT22;127;48.770;9.212;2023-01-28T06:59:32;0.70;99.90
285;DHT22;127;48.770;9.212;2023-01-28T07:02:01;0.70;99.90
285;DHT22;127;48.770;9.212;2023-01-28T07:04:30;0.70;99.90
285;DHT22;127;48.770;9.212;2023-01-28T07:06:59;0.70;99.90
285;DHT22;127;48.770;9.212;2023-01-28T07:09:30;0.60;99.90
285;DHT22;127;48.770;9.212;2023-01-28T07:11:59;0.70;99.90
285;DHT22;127;48.770;9.212;2023-01-28T07:14:29;0.70;99.90
285;DHT22;127;48.770;9.212;2023-01-28T07:16:58;0.60;99.90
285;DHT22;127;48.770;9.212;2023-01-28T07:19:27;0.60;99.90
285;DHT22;127;48.770;9.212;2023-01-28T07:21:55;0.60;99.90
285;DHT22;127;48.770;9.212;2023-01-28T07:24:25;0.60;99.90
285;DHT22;127;48.770;9.212;2023-01-28T07:26:56;0.70;99.90
285;DHT22;127;48.770;9.212;2023-01-28T07:29:25;0.80;99.90
285;DHT22;127;48.770;9.212;2023-01-28T07:31:54;0.90;99.90
285;DHT22;127;48.770;9.212;2023-01-28T07:34:22;0.90;99.90
285;DHT22;127;48.770;9.212;2023-01-28T07:36:51;0.90;99.90
285;DHT22;127;48.770;9.212;2023-01-28T07:39:19;0.90;99.90
285;DHT22;127;48.770;9.212;2023-01-28T07:41:48;0.90;99.90
285;DHT22;127;48.770;9.212;2023-01-28T07:44:19;0.90;99.90
285;DHT22;127;48.770;9.212;2023-01-28T07:46:48;1.00;99.90
285;DHT22;127;48.770;9.212;2023-01-28T07:49:17;1.00;99.90
285;DHT22;127;48.770;9.212;2023-01-28T07:51:46;0.70;99.90
285;DHT22;127;48.770;9.212;2023-01-28T07:54:15;0.60;99.90
285;DHT22;127;48.770;9.212;2023-01-28T07:56:44;0.60;99.90
285;DHT22;127;48.770;9.212;2023-01-28T07:59:13;0.70;99.90
285;DHT22;127;48.770;9.212;2023-01-28T08:01:44;0.80;99.90
285;DHT22;127;48.770;9.212;2023-01-28T08:04:12;0.90;99.90
285;DHT22;127;48.770;9.212;2023-01-28T08:06:41;1.00;99.90
285;DHT22;127;48.770;9.212;2023-01-28T08:09:10;1.00;99.90
285;DHT22;127;48.770;9.212;2023-01-28T08:11:40;1.10;99.90
285;DHT22;127;48.770;9.212;2023-01-28T08:14:09;1.10;99.90
285;DHT22;127;48.770;9.212;2023-01-28T08:16:38;1.20;99.90
285;DHT22;127;48.770;9.212;2023-01-28T08:19:09;1.20;99.90
285;DHT22;127;48.770;9.212;2023-01-28T08:21:38;1.20;99.90
285;DHT22;127;48.770;9.212;2023-01-28T08:24:07;1.20;99.90
285;DHT22;127;48.770;9.212;2023-01-28T08:26:35;1.30;99.90
285;DHT22;127;48.770;9.212;2023-01-28T08:29:04;1.40;99.90
285;DHT22;127;48.770;9.212;2023-01-28T08:31:33;1.60;99.90
285;DHT22;127;48.770;9.212;2023-01-28T08:34:01;1.70;99.90
285;DHT22;127;48.770;9.212;2023-01-28T08:36:33;1.70;99.90
285;DHT22;127;48.770;9.212;2023-01-28T08:39:01;1.80;99.90
285;DHT22;127;48.770;9.212;2023-01-28T08:41:30;1.80;99.90
285;DHT22;127;48.770;9.212;2023-01-28T08:43:59;1.80;99.90
285;DHT22;127;48.770;9.212;2023-01-28T08:46:28;1.80;99.90
285;DHT22;127;48.770;9.212;2023-01-28T08:48:56;1.90;99.90
285;DHT22;127;48.770;9.212;2023-01-28T08:51:25;2.00;99.90
285;DHT22;127;48.770;9.212;2023-01-28T08:53:56;2.10;99.90
285;DHT22;127;48.770;9.212;2023-01-28T08:56:25;2.20;99.90
285;DHT22;127;48.770;9.212;2023-01-28T08:58:55;2.30;99.90
285;DHT22;127;48.770;9.212;2023-01-28T09:01:23;2.40;99.90
285;DHT22;127;48.770;9.212;2023-01-28T09:03:54;2.30;99.90
285;DHT22;127;48.770;9.212;2023-01-28T09:06:22;2.10;99.90
285;DHT22;127;48.770;9.212;2023-01-28T09:08:51;1.90;99.90
285;DHT22;127;48.770;9.212;2023-01-28T09:11:22;1.80;99.90
285;DHT22;127;48.770;9.212;2023-01-28T09:13:55;2.00;99.90
285;DHT22;127;48.770;9.212;2023-01-28T09:16:24;2.20;99.90
285;DHT22;127;48.770;9.212;2023-01-28T09:18:52;2.50;99.90
285;DHT22;127;48.770;9.212;2023-01-28T09:21:21;2.60;99.90
285;DHT22;127;48.770;9.212;2023-01-28T09:23:50;2.80;99.90
285;DHT22;127;48.770;9.212;2023-01-28T09:26:22;2.50;99.90
285;DHT22;127;48.770;9.212;2023-01-28T09:28:51;2.70;99.90
285;DHT22;127;48.770;9.212;2023-01-28T09:31:20;2.60;99.90
285;DHT22;127;48.770;9.212;2023-01-28T09:33:49;2.60;99.90
285;DHT22;127;48.770;9.212;2023-01-28T09:36:21;2.80;99.90
285;DHT22;127;48.770;9.212;2023-01-28T09:38:51;2.40;99.90
285;DHT22;127;48.770;9.212;2023-01-28T09:41:27;2.50;99.90
285;DHT22;127;48.770;9.212;2023-01-28T09:44:04;2.70;99.90
285;DHT22;127;48.770;9.212;2023-01-28T09:46:35;2.90;99.90
285;DHT22;127;48.770;9.212;2023-01-28T09:49:14;2.70;99.90
285;DHT22;127;48.770;9.212;2023-01-28T09:51:48;2.80;99.90
285;DHT22;127;48.770;9.212;2023-01-28T09:54:26;2.90;99.90
285;DHT22;127;48.770;9.212;2023-01-28T09:57:04;2.80;99.90
285;DHT22;127;48.770;9.212;2023-01-28T09:59:34;2.60;99.90
285;DHT22;127;48.770;9.212;2023-01-28T10:02:18;2.50;99.90
285;DHT22;127;48.770;9.212;2023-01-28T10:04:57;2.60;99.90
285;DHT22;127;48.770;9.212;2023-01-28T10:07:35;2.80;99.90
285;DHT22;127;48.770;9.212;2023-01-28T10:10:13;2.80;99.90
285;DHT22;127;48.770;9.212;2023-01-28T10:12:58;2.70;99.90
285;DHT22;127;48.770;9.212;2023-01-28T10:15:49;2.80;99.90
285;DHT22;127;48.770;9.212;2023-01-28T10:18:26;2.60;99.90
285;DHT22;127;48.770;9.212;2023-01-28T10:21:01;2.30;99.90
285;DHT22;127;48.770;9.212;2023-01-28T10:23:45;2.00;99.90
285;DHT22;127;48.770;9.212;2023-01-28T10:26:22;2.10;99.90
285;DHT22;127;48.770;9.212;2023-01-28T10:29:02;2.20;99.90
285;DHT22;127;48.770;9.212;2023-01-28T10:31:34;2.20;99.90
285;DHT22;127;48.770;9.212;2023-01-28T10:34:04;2.20;99.90
285;DHT22;127;48.770;9.212;2023-01-28T10:36:33;2.30;99.90
285;DHT22;127;48.770;9.212;2023-01-28T10:39:02;2.40;99.90
285;DHT22;127;48.770;9.212;2023-01-28T10:41:31;2.50;99.90
285;DHT22;127;48.770;9.212;2023-01-28T10:44:03;2.40;99.90
285;DHT22;127;48.770;9.212;2023-01-28T10:46:32;2.30;99.90
285;DHT22;127;48.770;9.212;2023-01-28T10:49:11;2.40;99.90
285;DHT22;127;48.770;9.212;2023-01-28T10:51:41;2.40;99.90
285;DHT22;127;48.770;9.212;2023-01-28T10:54:19;2.50;99.90
285;DHT22;127;48.770;9.212;2023-01-28T10:56:50;2.50;99.90
285;DHT22;127;48.770;9.212;2023-01-28T10:59:25;2.50;99.90
285;DHT22;127;48.770;9.212;2023-01-28T11:01:57;2.50;99.90
285;DHT22;127;48.770;9.212;2023-01-28T11:04:28;2.40;99.90
285;DHT22;127;48.770;9.212;2023-01-28T11:06:59;2.50;99.90
285;DHT22;127;48.770;9.212;2023-01-28T11:09:29;2.50;99.90
285;DHT22;127;48.770;9.212;2023-01-28T11:12:09;2.50;99.90
285;DHT22;127;48.770;9.212;2023-01-28T11:14:48;2.60;99.90
285;DHT22;127;48.770;9.212;2023-01-28T11:17:18;2.70;99.90
285;DHT22;127;48.770;9.212;2023-01-28T11:19:49;2.80;99.90
285;DHT22;127;48.770;9.212;2023-01-28T11:22:23;2.80;99.90
285;DHT22;127;48.770;9.212;2023-01-28T11:24:55;2.80;99.90
285;DHT22;127;48.770;9.212;2023-01-28T11:27:27;2.80;99.90
285;DHT22;127;48.770;9.212;2023-01-28T11:30:00;2.80;99.90
285;DHT22;127;48.770;9.212;2023-01-28T11:32:30;2.50;99.90
285;DHT22;127;48.770;9.212;2023-01-28T11:34:58;2.50;99.90
285;DHT22;127;48.770;9.212;2023-01-28T11:37:28;2.30;99.90
285;DHT22;127;48.770;9.212;2023-01-28T11:40:02;2.50;99.90
285;DHT22;127;48.770;9.212;2023-01-28T11:42:32;2.60;99.90
285;DHT22;127;48.770;9.212;2023-01-28T11:45:11;2.60;99.90
285;DHT22;127;48.770;9.212;2023-01-28T11:47:53;2.50;99.90
285;DHT22;127;48.770;9.212;2023-01-28T11:50:38;2.40;99.90
285;DHT22;127;48.770;9.212;2023-01-28T11:53:28;2.50;99.90
285;DHT22;127;48.770;9.212;2023-01-28T11:56:18;2.60;99.90
285;DHT22;127;48.770;9.212;2023-01-28T11:58:57;2.70;99.90
285;DHT22;127;48.770;9.212;2023-01-28T12:01:40;2.70;99.90
285;DHT22;127;48.770;9.212;2023-01-28T12:04:23;2.70;99.90
285;DHT22;127;48.770;9.212;2023-01-28T12:07:09;2.70;99.90
285;DHT22;127;48.770;9.212;2023-01-28T12:09:47;2.90;99.90
285;DHT22;127;48.770;9.212;2023-01-28T12:12:37;2.70;99.90
285;DHT22;127;48.770;9.212;2023-01-28T12:15:30;2.50;99.90
285;DHT22;127;48.770;9.212;2023-01-28T12:18:15;2.70;99.90
285;DHT22;127;48.770;9.212;2023-01-28T12:20:50;2.60;99.90
285;DHT22;127;48.770;9.212;2023-01-28T12:23:34;2.50;99.90
285;DHT22;127;48.770;9.212;2023-01-28T12:26:10;2.50;99.90
285;DHT22;127;48.770;9.212;2023-01-28T12:28:50;2.40;99.90
285;DHT22;127;48.770;9.212;2023-01-28T12:31:45;2.30;99.90
285;DHT22;127;48.770;9.212;2023-01-28T12:34:48;2.30;99.90
285;DHT22;127;48.770;9.212;2023-01-28T12:37:25;2.40;99.90
285;DHT22;127;48.770;9.212;2023-01-28T12:40:10;2.40;99.90
285;DHT22;127;48.770;9.212;2023-01-28T12:42:46;2.40;99.90
285;DHT22;127;48.770;9.212;2023-01-28T12:45:20;2.30;99.90
285;DHT22;127;48.770;9.212;2023-01-28T12:47:53;2.30;99.90
285;DHT22;127;48.770;9.212;2023-01-28T12:50:30;2.30;99.90
285;DHT22;127;48.770;9.212;2023-01-28T12:53:02;2.40;99.90
285;DHT22;127;48.770;9.212;2023-01-28T12:55:39;2.50;99.90
285;DHT22;127;48.770;9.212;2023-01-28T12:58:16;2.30;99.90
285;DHT22;127;48.770;9.212;2023-01-28T13:00:49;2.40;99.90
285;DHT22;127;48.770;9.212;2023-01-28T13:03:23;2.30;99.90
285;DHT22;127;48.770;9.212;2023-01-28T13:05:59;2.20;99.90
285;DHT22;127;48.770;9.212;2023-01-28T13:08:29;2.40;99.90
285;DHT22;127;48.770;9.212;2023-01-28T13:11:00;2.30;99.90
285;DHT22;127;48.770;9.212;2023-01-28T13:13:32;2.40;99.90
285;DHT22;127;48.770;9.212;2023-01-28T13:16:02;2.30;99.90
285;DHT22;127;48.770;9.212;2023-01-28T13:18:33;2.20;99.90
285;DHT22;127;48.770;9.212;2023-01-28T13:21:05;2.40;99.90
285;DHT22;127;48.770;9.212;2023-01-28T13:23:39;2.50;99.90
285;DHT22;127;48.770;9.212;2023-01-28T13:26:11;2.30;99.90
285;DHT22;127;48.770;9.212;2023-01-28T13:29:06;2.40;99.90
285;DHT22;127;48.770;9.212;2023-01-28T13:31:37;2.30;99.90
285;DHT22;127;48.770;9.212;2023-01-28T13:34:10;2.40;99.90
285;DHT22;127;48.770;9.212;2023-01-28T13:36:46;2.40;99.90
285;DHT22;127;48.770;9.212;2023-01-28T13:39:20;2.20;99.90
285;DHT22;127;48.770;9.212;2023-01-28T13:41:51;2.20;99.90
285;DHT22;127;48.770;9.212;2023-01-28T13:44:26;2.30;99.90
285;DHT22;127;48.770;9.212;2023-01-28T13:46:57;1.90;99.90
285;DHT22;127;48.770;9.212;2023-01-28T13:49:31;1.80;99.90
285;DHT22;127;48.770;9.212;2023-01-28T13:52:06;1.90;99.90
285;DHT22;127;48.770;9.212;2023-01-28T13:54:43;1.90;99.90
285;DHT22;127;48.770;9.212;2023-01-28T14:00:22;2.10;99.90
285;DHT22;127;48.770;9.212;2023-01-28T14:06:17;2.00;99.90
285;DHT22;127;48.770;9.212;2023-01-28T14:09:12;2.00;99.90
285;DHT22;127;48.770;9.212;2023-01-28T14:17:47;2.00;99.90
285;DHT22;127;48.770;9.212;2023-01-28T14:20:19;2.10;99.90
285;DHT22;127;48.770;9.212;2023-01-28T14:22:49;2.10;99.90
285;DHT22;127;48.770;9.212;2023-01-28T14:25:27;2.00;99.90
285;DHT22;127;48.770;9.212;2023-01-28T14:27:58;1.90;99.90
285;DHT22;127;48.770;9.212;2023-01-28T14:30:40;2.00;99.90
285;DHT22;127;48.770;9.212;2023-01-28T14:33:11;2.00;99.90
285;DHT22;127;48.770;9.212;2023-01-28T14:35:45;2.00;99.90
285;DHT22;127;48.770;9.212;2023-01-28T14:38:16;2.00;99.90
285;DHT22;127;48.770;9.212;2023-01-28T14:40:49;1.70;99.90
285;DHT22;127;48.770;9.212;2023-01-28T14:43:20;1.70;99.90
285;DHT22;127;48.770;9.212;2023-01-28T14:46:10;1.80;99.90
285;DHT22;127;48.770;9.212;2023-01-28T14:48:49;1.90;99.90
285;DHT22;127;48.770;9.212;2023-01-28T14:51:36;2.00;99.90
285;DHT22;127;48.770;9.212;2023-01-28T14:54:32;1.90;99.90
285;DHT22;127;48.770;9.212;2023-01-28T14:57:24;1.90;99.90
285;DHT22;127;48.770;9.212;2023-01-28T14:59:56;1.90;99.90
285;DHT22;127;48.770;9.212;2023-01-28T15:02:28;1.90;99.90
285;DHT22;127;48.770;9.212;2023-01-28T15:05:07;1.90;99.90
285;DHT22;127;48.770;9.212;2023-01-28T15:07:36;1.90;99.90
285;DHT22;127;48.770;9.212;2023-01-28T15:10:12;1.70;99.90
285;DHT22;127;48.770;9.212;2023-01-28T15:12:48;1.70;99.90
285;DHT22;127;48.770;9.212;2023-01-28T15:15:24;1.90;99.90
285;DHT22;127;48.770;9.212;2023-01-28T15:17:54;1.90;99.90
285;DHT22;127;48.770;9.212;2023-01-28T15:20:24;2.00;99.90
285;DHT22;127;48.770;9.212;2023-01-28T15:22:53;2.10;99.90
285;DHT22;127;48.770;9.212;2023-01-28T15:25:25;2.10;99.90
285;DHT22;127;48.770;9.212;2023-01-28T15:27:59;2.00;99.90
285;DHT22;127;48.770;9.212;2023-01-28T15:30:30;2.00;99.90
285;DHT22;127;48.770;9.212;2023-01-28T15:33:01;1.90;99.90
285;DHT22;127;48.770;9.212;2023-01-28T15:35:31;1.80;99.90
285;DHT22;127;48.770;9.212;2023-01-28T15:38:00;1.90;99.90
285;DHT22;127;48.770;9.212;2023-01-28T15:40:30;1.80;99.90
285;DHT22;127;48.770;9.212;2023-01-28T15:43:01;1.80;99.90
285;DHT22;127;48.770;9.212;2023-01-28T15:45:31;1.70;99.90
285;DHT22;127;48.770;9.212;2023-01-28T15:48:04;1.70;99.90
285;DHT22;127;48.770;9.212;2023-01-28T15:50:33;1.70;99.90
285;DHT22;127;48.770;9.212;2023-01-28T15:53:07;1.60;99.90
285;DHT22;127;48.770;9.212;2023-01-28T15:55:38;1.60;99.90
285;DHT22;127;48.770;9.212;2023-01-28T15:58:25;1.60;99.90
285;DHT22;127;48.770;9.212;2023-01-28T16:01:12;1.70;99.90
285;DHT22;127;48.770;9.212;2023-01-28T16:03:43;1.70;99.90
285;DHT22;127;48.770;9.212;2023-01-28T16:06:14;1.70;99.90
285;DHT22;127;48.770;9.212;2023-01-28T16:08:51;1.50;99.90
285;DHT22;127;48.770;9.212;2023-01-28T16:11:25;1.50;99.90
285;DHT22;127;48.770;9.212;2023-01-28T16:13:57;1.60;99.90
285;DHT22;127;48.770;9.212;2023-01-28T16:16:28;1.50;99.90
285;DHT22;127;48.770;9.212;2023-01-28T16:18:59;1.60;99.90
285;DHT22;127;48.770;9.212;2023-01-28T16:21:32;1.60;99.90
285;DHT22;127;48.770;9.212;2023-01-28T16:24:04;1.60;99.90
285;DHT22;127;48.770;9.212;2023-01-28T16:26:34;1.40;99.90
285;DHT22;127;48.770;9.212;2023-01-28T16:29:15;1.50;99.90
285;DHT22;127;48.770;9.212;2023-01-28T16:31:48;1.50;99.90
285;DHT22;127;48.770;9.212;2023-01-28T16:34:21;1.60;99.90
285;DHT22;127;48.770;9.212;2023-01-28T16:36:52;1.60;99.90
285;DHT22;127;48.770;9.212;2023-01-28T16:39:20;1.60;99.90
285;DHT22;127;48.770;9.212;2023-01-28T16:41:50;1.60;99.90
285;DHT22;127;48.770;9.212;2023-01-28T16:44:26;1.30;99.90
285;DHT22;127;48.770;9.212;2023-01-28T16:46:58;1.30;99.90
285;DHT22;127;48.770;9.212;2023-01-28T16:49:28;1.40;99.90
285;DHT22;127;48.770;9.212;2023-01-28T16:51:59;1.50;99.90
285;DHT22;127;48.770;9.212;2023-01-28T16:54:32;1.60;99.90
285;DHT22;127;48.770;9.212;2023-01-28T16:57:05;1.70;99.90
285;DHT22;127;48.770;9.212;2023-01-28T16:59:41;1.50;99.90
285;DHT22;127;48.770;9.212;2023-01-28T17:02:13;1.40;99.90
285;DHT22;127;48.770;9.212;2023-01-28T17:04:43;1.40;99.90
285;DHT22;127;48.770;9.212;2023-01-28T17:07:15;1.30;99.90
285;DHT22;127;48.770;9.212;2023-01-28T17:09:46;1.30;99.90
285;DHT22;127;48.770;9.212;2023-01-28T17:12:16;1.40;99.90
285;DHT22;127;48.770;9.212;2023-01-28T17:14:48;1.30;99.90
285;DHT22;127;48.770;9.212;2023-01-28T17:17:18;1.30;99.90
285;DHT22;127;48.770;9.212;2023-01-28T17:19:48;1.30;99.90
285;DHT22;127;48.770;9.212;2023-01-28T17:22:19;1.30;99.90
285;DHT22;127;48.770;9.212;2023-01-28T17:24:50;1.30;99.90
285;DHT22;127;48.770;9.212;2023-01-28T17:27:22;1.40;99.90
285;DHT22;127;48.770;9.212;2023-01-28T17:29:53;1.50;99.90
285;DHT22;127;48.770;9.212;2023-01-28T17:32:22;1.60;99.90
285;DHT22;127;48.770;9.212;2023-01-28T17:34:54;1.40;99.90
285;DHT22;127;48.770;9.212;2023-01-28T17:37:26;1.50;99.90
285;DHT22;127;48.770;9.212;2023-01-28T17:39:58;1.50;99.90
285;DHT22;127;48.770;9.212;2023-01-28T17:42:28;1.30;99.90
285;DHT22;127;48.770;9.212;2023-01-28T17:44:59;1.40;99.90